createdAt,value
2023-05-14T00:02:10.367Z,15.65
2023-05-14T00:04:37.315Z,15.00
2023-05-14T00:07:04.395Z,15.07
2023-05-14T00:09:32.053Z,13.30
2023-05-14T00:11:59.004Z,13.07
2023-05-14T00:14:26.067Z,14.23
2023-05-14T00:16:54.456Z,12.65
2023-05-14T00:19:21.738Z,14.02
2023-05-14T00:21:48.688Z,13.77
2023-05-14T00:24:15.799Z,12.47
2023-05-14T00:26:42.771Z,13.65
2023-05-14T00:29:09.856Z,13.35
2023-05-14T00:31:40.020Z,12.65
2023-05-14T00:34:07.248Z,14.63
2023-05-14T00:36:34.204Z,15.00
2023-05-14T00:39:01.211Z,15.05
2023-05-14T00:41:28.157Z,15.45
2023-05-14T00:43:55.086Z,14.35
2023-05-14T00:46:22.684Z,16.77
2023-05-14T00:48:51.033Z,15.17
2023-05-14T00:51:19.211Z,15.38
2023-05-14T00:53:47.235Z,14.18
2023-05-14T00:56:15.983Z,13.75
2023-05-14T00:58:42.918Z,14.73
2023-05-14T01:01:10.227Z,13.37
2023-05-14T01:03:37.437Z,13.93
2023-05-14T01:06:23.383Z,13.02
2023-05-14T01:09:09.198Z,16.77
2023-05-14T01:11:40.172Z,13.40
2023-05-14T01:14:22.138Z,13.93
2023-05-14T01:16:52.699Z,13.27
2023-05-14T01:19:33.560Z,12.52
2023-05-14T01:22:00.564Z,14.07
2023-05-14T01:24:27.671Z,12.63
2023-05-14T01:27:02.484Z,12.33
2023-05-14T01:29:32.562Z,12.82
2023-05-14T01:32:06.523Z,12.68
2023-05-14T01:34:35.510Z,11.63
2023-05-14T01:37:04.139Z,18.33
2023-05-14T01:39:32.686Z,13.87
2023-05-14T01:42:00.909Z,12.88
2023-05-14T01:44:28.375Z,13.60
2023-05-14T01:46:55.423Z,14.40
2023-05-14T01:49:22.811Z,15.10
2023-05-14T01:51:49.802Z,15.90
2023-05-14T01:54:16.749Z,13.90
2023-05-14T01:56:43.726Z,13.35
2023-05-14T01:59:11.370Z,13.35
2023-05-14T02:01:38.802Z,12.77
2023-05-14T02:04:05.868Z,12.50
2023-05-14T02:06:32.892Z,12.48
2023-05-14T02:08:59.964Z,13.38
2023-05-14T02:11:27.522Z,12.48
2023-05-14T02:13:54.517Z,11.85
2023-05-14T02:16:21.573Z,13.03
2023-05-14T02:18:48.596Z,13.85
2023-05-14T02:21:15.708Z,12.95
2023-05-14T02:23:43.147Z,12.93
2023-05-14T02:26:11.317Z,12.27
2023-05-14T02:28:38.344Z,14.07
2023-05-14T02:31:05.364Z,14.10
2023-05-14T02:33:32.720Z,13.35
2023-05-14T02:35:59.922Z,11.75
2023-05-14T02:38:27.306Z,13.98
2023-05-14T02:40:56.718Z,12.90
2023-05-14T02:43:23.801Z,11.50
2023-05-14T02:45:50.753Z,13.13
2023-05-14T02:48:17.716Z,12.63
2023-05-14T02:50:44.663Z,13.00
2023-05-14T02:53:11.928Z,12.10
2023-05-14T02:55:38.903Z,11.95
2023-05-14T02:58:05.858Z,12.20
2023-05-14T03:00:32.918Z,13.15
2023-05-14T03:03:00.712Z,12.90
2023-05-14T03:05:27.899Z,11.93
2023-05-14T03:07:54.884Z,12.85
2023-05-14T03:10:22.070Z,12.60
2023-05-14T03:12:49.486Z,12.85
2023-05-14T03:15:16.428Z,12.65
2023-05-14T03:17:43.406Z,12.80
2023-05-14T03:20:11.197Z,11.65
2023-05-14T03:22:38.182Z,12.05
2023-05-14T03:25:05.601Z,11.95
2023-05-14T03:27:33.741Z,11.20
2023-05-14T03:30:00.880Z,12.77
2023-05-14T03:32:28.083Z,13.45
2023-05-14T03:34:55.101Z,12.02
2023-05-14T03:37:22.089Z,11.43
2023-05-14T03:39:49.038Z,12.32
2023-05-14T03:42:16.074Z,11.63
2023-05-14T03:44:42.996Z,12.88
2023-05-14T03:47:09.988Z,11.98
2023-05-14T03:49:37.071Z,12.85
2023-05-14T03:52:04.871Z,11.98
2023-05-14T03:54:31.839Z,11.80
2023-05-14T03:56:59.988Z,10.32
2023-05-14T03:59:27.020Z,12.38
2023-05-14T04:01:54.245Z,10.73
2023-05-14T04:04:21.162Z,11.93
2023-05-14T04:06:48.135Z,13.53
2023-05-14T04:09:15.082Z,10.32
2023-05-14T04:11:42.216Z,12.60
2023-05-14T04:14:09.310Z,11.07
2023-05-14T04:16:36.347Z,12.00
2023-05-14T04:19:09.734Z,11.73
2023-05-14T04:21:37.917Z,10.43
2023-05-14T04:24:05.135Z,10.73
2023-05-14T04:26:32.076Z,10.77
2023-05-14T04:29:02.923Z,9.93
2023-05-14T04:31:30.508Z,9.87
2023-05-14T04:33:57.459Z,12.98
2023-05-14T04:36:24.854Z,9.77
2023-05-14T04:38:51.878Z,10.63
2023-05-14T04:41:18.852Z,12.73
2023-05-14T04:43:46.872Z,10.53
2023-05-14T04:46:14.032Z,10.77
2023-05-14T04:48:41.077Z,10.73
2023-05-14T04:51:08.102Z,8.82
2023-05-14T04:53:35.072Z,11.73
2023-05-14T04:56:02.029Z,8.87
2023-05-14T04:58:33.783Z,9.20
2023-05-14T05:01:06.289Z,9.13
2023-05-14T05:03:33.435Z,9.00
2023-05-14T05:06:00.512Z,9.63
2023-05-14T05:08:27.516Z,9.03
2023-05-14T05:10:54.535Z,11.15
2023-05-14T05:13:21.526Z,9.65
2023-05-14T05:15:48.579Z,10.00
2023-05-14T05:18:15.748Z,10.40
2023-05-14T05:20:42.728Z,9.30
2023-05-14T05:23:09.780Z,7.75
2023-05-14T05:25:36.689Z,24.38
2023-05-14T05:28:03.841Z,10.40
2023-05-14T05:30:30.881Z,10.43
2023-05-14T05:32:58.131Z,7.30
2023-05-14T05:35:25.143Z,9.35
2023-05-14T05:37:52.398Z,8.77
2023-05-14T05:40:19.390Z,8.32
2023-05-14T05:42:46.442Z,8.68
2023-05-14T05:45:13.417Z,7.50
2023-05-14T05:47:40.826Z,7.50
2023-05-14T05:50:08.877Z,8.73
2023-05-14T05:52:37.410Z,8.52
2023-05-14T05:55:04.779Z,8.55
2023-05-14T05:57:31.805Z,7.23
2023-05-14T05:59:58.733Z,6.55
2023-05-14T06:02:26.324Z,9.60
2023-05-14T06:04:53.468Z,8.10
2023-05-14T06:07:20.515Z,7.65
2023-05-14T06:09:47.516Z,7.67
2023-05-14T06:12:14.464Z,6.20
2023-05-14T06:14:41.422Z,7.85
2023-05-14T06:17:08.534Z,7.72
2023-05-14T06:19:35.500Z,7.47
2023-05-14T06:22:02.953Z,7.50
2023-05-14T06:24:30.704Z,7.38
2023-05-14T06:26:57.617Z,9.43
2023-05-14T06:29:25.538Z,7.93
2023-05-14T06:31:52.541Z,9.20
2023-05-14T06:34:19.770Z,7.63
2023-05-14T06:36:46.899Z,7.13
2023-05-14T06:39:13.945Z,7.05
2023-05-14T06:41:40.973Z,8.38
2023-05-14T06:44:13.801Z,6.88
2023-05-14T06:46:40.855Z,6.40
2023-05-14T06:49:07.831Z,7.90
2023-05-14T06:51:34.861Z,6.70
2023-05-14T06:54:01.835Z,7.70
2023-05-14T06:56:28.810Z,8.43
2023-05-14T06:58:55.972Z,6.40
2023-05-14T07:01:23.054Z,6.63
2023-05-14T07:03:50.091Z,8.40
2023-05-14T07:06:17.198Z,6.30
2023-05-14T07:08:47.460Z,7.00
2023-05-14T07:11:15.242Z,7.10
2023-05-14T07:13:42.822Z,6.85
2023-05-14T07:16:10.408Z,7.75
2023-05-14T07:18:37.644Z,7.47
2023-05-14T07:21:06.602Z,6.85
2023-05-14T07:23:36.594Z,9.53
2023-05-14T07:26:07.338Z,7.93
2023-05-14T07:28:34.790Z,10.02
2023-05-14T07:31:01.954Z,9.35
2023-05-14T07:33:29.027Z,8.80
2023-05-14T07:35:55.994Z,7.60
2023-05-14T07:38:23.073Z,7.97
2023-05-14T07:40:50.040Z,8.55
2023-05-14T07:43:17.254Z,7.07
2023-05-14T07:45:44.384Z,9.85
2023-05-14T07:48:11.742Z,8.23
2023-05-14T07:50:39.196Z,8.88
2023-05-14T07:53:06.370Z,7.35
2023-05-14T07:55:33.436Z,8.63
2023-05-14T07:58:00.948Z,7.93
2023-05-14T08:00:28.083Z,8.03
2023-05-14T08:02:56.110Z,7.75
2023-05-14T08:05:23.264Z,7.65
2023-05-14T08:07:50.308Z,8.25
2023-05-14T08:10:17.206Z,8.35
2023-05-14T08:12:44.248Z,10.37
2023-05-14T08:15:11.308Z,6.80
2023-05-14T08:17:38.342Z,8.45
2023-05-14T08:20:06.843Z,7.40
2023-05-14T08:22:34.036Z,7.55
2023-05-14T08:25:02.972Z,7.27
2023-05-14T08:27:30.012Z,8.00
2023-05-14T08:29:57.056Z,7.82
2023-05-14T08:32:24.377Z,9.27
2023-05-14T08:34:52.086Z,9.80
2023-05-14T08:37:19.177Z,8.57
2023-05-14T08:39:46.212Z,6.05
2023-05-14T08:42:13.954Z,7.82
2023-05-14T08:44:50.146Z,7.70
2023-05-14T08:47:20.865Z,10.90
2023-05-14T08:49:53.239Z,8.07
2023-05-14T08:52:22.274Z,10.48
2023-05-14T08:54:51.130Z,7.00
2023-05-14T08:57:20.302Z,8.05
2023-05-14T08:59:47.648Z,8.95
2023-05-14T09:02:17.420Z,8.07
2023-05-14T09:04:45.301Z,9.20
2023-05-14T09:07:12.530Z,8.45
2023-05-14T09:09:40.849Z,8.25
2023-05-14T09:12:08.198Z,7.13
2023-05-14T09:14:35.618Z,7.80
2023-05-14T09:17:03.628Z,8.45
2023-05-14T09:19:30.969Z,8.23
2023-05-14T09:22:01.532Z,20.05
2023-05-14T09:24:31.163Z,7.97
2023-05-14T09:26:58.782Z,7.90
2023-05-14T09:29:27.728Z,8.20
2023-05-14T09:31:58.435Z,9.70
2023-05-14T09:34:30.865Z,9.00
2023-05-14T09:37:02.100Z,9.13
2023-05-14T09:39:30.528Z,10.67
2023-05-14T09:41:57.823Z,10.48
2023-05-14T09:44:25.636Z,7.75
2023-05-14T09:46:53.715Z,11.38
2023-05-14T09:49:21.056Z,9.90
2023-05-14T09:51:49.589Z,9.27
2023-05-14T09:54:16.884Z,8.43
2023-05-14T09:56:44.574Z,8.40
2023-05-14T09:59:11.730Z,7.65
2023-05-14T10:01:39.624Z,8.10
2023-05-14T10:04:09.354Z,8.63
2023-05-14T10:06:42.128Z,11.00
2023-05-14T10:09:20.112Z,9.13
2023-05-14T10:11:51.012Z,8.43
2023-05-14T10:14:24.949Z,8.98
2023-05-14T10:16:53.074Z,10.43
2023-05-14T10:19:23.886Z,9.85
2023-05-14T10:21:59.944Z,10.00
2023-05-14T10:24:27.847Z,9.15
2023-05-14T10:26:55.008Z,9.68
2023-05-14T10:29:33.385Z,9.00
2023-05-14T10:32:08.064Z,9.27
2023-05-14T10:34:46.376Z,8.95
2023-05-14T10:37:18.008Z,9.88
2023-05-14T10:39:58.594Z,8.50
2023-05-14T10:42:39.787Z,14.90
2023-05-14T10:45:09.268Z,9.77
2023-05-14T10:47:38.165Z,9.30
2023-05-14T10:50:10.908Z,9.13
2023-05-14T10:52:38.338Z,8.60
2023-05-14T10:55:12.638Z,9.83
2023-05-14T10:57:41.956Z,9.13
2023-05-14T11:00:10.844Z,9.40
2023-05-14T11:02:43.190Z,8.95
2023-05-14T11:05:16.053Z,10.48
2023-05-14T11:07:44.402Z,8.53
2023-05-14T11:10:19.271Z,10.38
2023-05-14T11:12:51.244Z,10.25
2023-05-14T11:15:21.210Z,7.78
2023-05-14T11:17:49.629Z,9.35
2023-05-14T11:20:17.499Z,9.07
2023-05-14T11:22:46.707Z,8.63
2023-05-14T11:25:15.162Z,10.70
2023-05-14T11:27:43.836Z,9.45
2023-05-14T11:30:18.856Z,9.68
2023-05-14T11:32:49.330Z,7.70
2023-05-14T11:35:17.666Z,8.38
2023-05-14T11:37:51.621Z,8.05
2023-05-14T11:40:19.449Z,10.68
2023-05-14T11:42:46.536Z,8.43
2023-05-14T11:45:14.495Z,9.57
2023-05-14T11:47:42.915Z,10.02
2023-05-14T11:50:11.159Z,7.70
2023-05-14T11:52:41.737Z,8.93
2023-05-14T11:55:12.868Z,8.05
2023-05-14T11:57:41.164Z,9.43
2023-05-14T12:00:21.376Z,8.07
2023-05-14T12:02:51.990Z,11.88
2023-05-14T12:05:19.191Z,8.75
2023-05-14T12:07:47.287Z,8.45
2023-05-14T12:10:14.404Z,7.60
2023-05-14T12:12:44.951Z,9.05
2023-05-14T12:15:17.092Z,8.52
2023-05-14T12:17:50.869Z,8.63
2023-05-14T12:20:18.424Z,9.73
2023-05-14T12:22:45.390Z,8.73
2023-05-14T12:25:13.956Z,9.18
2023-05-14T12:27:41.531Z,8.40
2023-05-14T12:32:41.372Z,8.68
2023-05-14T12:35:09.516Z,8.97
2023-05-14T12:37:37.582Z,8.40
2023-05-14T12:40:09.376Z,9.80
2023-05-14T12:42:36.961Z,9.23
2023-05-14T12:45:07.262Z,9.10
2023-05-14T12:47:34.831Z,7.33
2023-05-14T12:50:02.235Z,8.45
2023-05-14T12:52:37.516Z,8.60
2023-05-14T12:55:09.836Z,7.05
2023-05-14T12:57:39.352Z,9.07
2023-05-14T13:00:08.510Z,7.77
2023-05-14T13:02:43.130Z,8.73
2023-05-14T13:05:11.732Z,8.02
2023-05-14T13:07:39.130Z,7.50
2023-05-14T13:10:06.821Z,7.05
2023-05-14T13:12:34.108Z,7.53
2023-05-14T13:15:01.098Z,8.23
2023-05-14T13:17:28.148Z,8.57
2023-05-14T13:19:55.271Z,7.00
2023-05-14T13:22:22.186Z,6.68
2023-05-14T13:24:49.130Z,8.67
2023-05-14T13:27:16.194Z,8.38
2023-05-14T13:29:43.227Z,8.13
2023-05-14T13:32:10.401Z,7.07
2023-05-14T13:34:37.421Z,8.90
2023-05-14T13:37:04.622Z,7.03
2023-05-14T13:39:31.561Z,9.55
2023-05-14T13:41:58.462Z,8.63
2023-05-14T13:44:25.654Z,6.45
2023-05-14T13:46:53.189Z,6.38
2023-05-14T13:49:20.371Z,5.30
2023-05-14T13:51:47.469Z,6.50
2023-05-14T13:54:14.391Z,7.07
2023-05-14T13:56:41.354Z,6.72
2023-05-14T13:59:08.371Z,7.22
2023-05-14T14:01:35.405Z,5.93
2023-05-14T14:04:02.477Z,7.50
2023-05-14T14:06:32.467Z,6.63
2023-05-14T14:08:59.713Z,7.95
2023-05-14T14:11:27.439Z,7.95
2023-05-14T14:13:54.610Z,6.10
2023-05-14T14:16:21.616Z,6.40
2023-05-14T14:18:48.597Z,6.88
2023-05-14T14:21:18.385Z,6.93
2023-05-14T14:23:47.389Z,33.95
2023-05-14T14:26:14.428Z,7.43
2023-05-14T14:28:41.545Z,8.68
2023-05-14T14:31:08.560Z,8.68
2023-05-14T14:33:35.550Z,10.50
2023-05-14T14:36:02.535Z,10.30
2023-05-14T14:38:29.451Z,7.70
2023-05-14T14:40:57.191Z,8.95
2023-05-14T14:43:24.845Z,7.07
2023-05-14T14:45:51.832Z,7.18
2023-05-14T14:48:32.947Z,11.25
2023-05-14T14:51:03.748Z,8.47
2023-05-14T14:53:31.612Z,8.18
2023-05-14T14:55:58.998Z,8.82
2023-05-14T14:58:26.246Z,7.57
2023-05-14T15:00:58.175Z,8.52
2023-05-14T15:03:25.677Z,9.53
2023-05-14T15:05:53.871Z,9.95
2023-05-14T15:08:24.985Z,8.88
2023-05-14T15:10:52.209Z,8.50
2023-05-14T15:13:19.763Z,11.13
2023-05-14T15:15:47.369Z,10.73
2023-05-14T15:18:14.294Z,10.77
2023-05-14T15:20:41.472Z,10.27
2023-05-14T15:23:09.221Z,10.98
2023-05-14T15:25:36.448Z,8.95
2023-05-14T15:28:05.708Z,8.70
2023-05-14T15:30:33.100Z,8.65
2023-05-14T15:33:00.719Z,9.65
2023-05-14T15:35:28.304Z,8.80
2023-05-14T15:37:59.862Z,9.63
2023-05-14T15:40:27.944Z,11.20
2023-05-14T15:42:55.291Z,9.75
2023-05-14T15:45:31.786Z,11.25
2023-05-14T15:48:00.935Z,9.40
2023-05-14T15:50:28.310Z,10.77
2023-05-14T15:52:55.548Z,9.93
2023-05-14T15:55:38.724Z,11.50
2023-05-14T16:02:18.645Z,12.75
2023-05-14T16:04:45.794Z,13.23
2023-05-14T16:07:13.460Z,10.53
2023-05-14T16:09:40.605Z,9.02
2023-05-14T16:12:08.579Z,13.43
2023-05-14T16:14:35.985Z,10.77
2023-05-14T16:17:03.640Z,11.40
2023-05-14T16:19:30.886Z,10.10
2023-05-14T16:21:57.977Z,9.65
2023-05-14T16:24:24.921Z,9.85
2023-05-14T16:26:51.960Z,8.55
2023-05-14T16:29:19.028Z,8.90
2023-05-14T16:31:46.238Z,12.43
2023-05-14T16:34:15.880Z,10.50
2023-05-14T16:36:43.762Z,10.57
2023-05-14T16:39:11.576Z,9.75
2023-05-14T16:41:38.694Z,9.50
2023-05-14T16:44:05.979Z,9.50
2023-05-14T16:46:33.500Z,10.13
2023-05-14T16:49:02.432Z,10.73
2023-05-14T16:51:32.988Z,10.18
2023-05-14T16:54:00.763Z,10.93
2023-05-14T16:56:27.867Z,10.17
2023-05-14T16:58:54.944Z,12.43
2023-05-14T17:01:22.088Z,10.95
2023-05-14T17:03:51.510Z,13.50
2023-05-14T17:06:18.808Z,12.95
2023-05-14T17:08:45.968Z,13.30
2023-05-14T17:11:15.780Z,13.73
2023-05-14T17:13:42.772Z,12.30
2023-05-14T17:16:09.893Z,13.95
2023-05-14T17:18:37.973Z,11.02
2023-05-14T17:21:06.053Z,10.80
2023-05-14T17:23:33.335Z,11.80
2023-05-14T17:26:00.321Z,10.85
2023-05-14T17:28:28.556Z,12.80
2023-05-14T17:30:56.357Z,13.95
2023-05-14T17:33:23.580Z,13.57
2023-05-14T17:35:50.692Z,18.77
2023-05-14T17:38:17.820Z,15.38
2023-05-14T17:40:45.232Z,16.85
2023-05-14T17:43:12.625Z,18.80
2023-05-14T17:45:52.979Z,15.73
2023-05-14T17:48:24.314Z,18.40
2023-05-14T17:50:52.160Z,15.50
2023-05-14T17:53:19.626Z,13.75
2023-05-14T17:55:47.080Z,15.73
2023-05-14T17:58:15.610Z,15.70
2023-05-14T18:00:45.536Z,14.73
2023-05-14T18:03:14.415Z,14.02
2023-05-14T18:05:41.831Z,13.88
2023-05-14T18:08:09.882Z,13.55
2023-05-14T18:10:37.249Z,17.80
2023-05-14T18:13:07.769Z,16.95
2023-05-14T18:15:37.815Z,15.63
2023-05-14T18:18:05.498Z,14.98
2023-05-14T18:20:34.145Z,18.10
2023-05-14T18:23:03.095Z,18.17
2023-05-14T18:25:30.276Z,15.50
2023-05-14T18:27:57.624Z,17.60
2023-05-14T18:30:24.679Z,15.25
2023-05-14T18:32:52.091Z,14.88
2023-05-14T18:35:19.481Z,14.97
2023-05-14T18:37:46.811Z,14.60
2023-05-14T18:40:16.312Z,18.20
2023-05-14T18:42:45.642Z,15.18
2023-05-14T18:45:12.748Z,17.00
2023-05-14T18:47:40.230Z,14.90
2023-05-14T18:50:08.350Z,14.93
2023-05-14T18:52:35.702Z,17.23
2023-05-14T18:55:03.000Z,15.55
2023-05-14T18:57:32.435Z,15.52
2023-05-14T19:00:03.488Z,14.57
2023-05-14T19:02:31.764Z,17.13
2023-05-14T19:04:59.298Z,13.10
2023-05-14T19:07:27.867Z,14.68
2023-05-14T19:09:55.177Z,12.15
2023-05-14T19:12:22.398Z,12.10
2023-05-14T19:14:49.338Z,11.57
2023-05-14T19:17:18.350Z,12.02
2023-05-14T19:19:46.122Z,14.07
2023-05-14T19:22:13.172Z,13.88
2023-05-14T19:24:40.251Z,17.17
2023-05-14T19:27:07.798Z,17.10
2023-05-14T19:29:36.866Z,14.60
2023-05-14T19:32:04.769Z,12.00
2023-05-14T19:34:31.785Z,15.10
2023-05-14T19:36:59.233Z,16.07
2023-05-14T19:39:29.415Z,15.10
2023-05-14T19:41:56.546Z,15.70
2023-05-14T19:44:23.718Z,15.63
2023-05-14T19:46:51.147Z,14.52
2023-05-14T19:49:18.215Z,17.10
2023-05-14T19:51:45.313Z,17.02
2023-05-14T19:54:12.375Z,15.15
2023-05-14T19:56:39.609Z,14.50
2023-05-14T19:59:07.064Z,14.50
2023-05-14T20:01:34.881Z,15.70
2023-05-14T20:04:04.360Z,16.67
2023-05-14T20:06:32.159Z,15.30
2023-05-14T20:08:59.440Z,15.68
2023-05-14T20:11:26.858Z,16.00
2023-05-14T20:13:53.938Z,15.37
2023-05-14T20:16:21.738Z,18.67
2023-05-14T20:18:49.106Z,21.77
2023-05-14T20:21:16.181Z,19.38
2023-05-14T20:23:43.238Z,19.67
2023-05-14T20:26:10.541Z,19.90
2023-05-14T20:28:37.509Z,20.60
2023-05-14T20:31:07.882Z,21.02
2023-05-14T20:33:35.385Z,22.60
2023-05-14T20:36:04.525Z,25.77
2023-05-14T20:38:32.824Z,21.10
2023-05-14T20:40:59.807Z,20.38
2023-05-14T20:43:30.568Z,20.45
2023-05-14T20:45:59.046Z,23.95
2023-05-14T20:48:26.414Z,20.10
2023-05-14T20:50:53.516Z,23.60
2023-05-14T20:53:20.520Z,20.80
2023-05-14T20:55:47.633Z,26.73
2023-05-14T20:58:14.771Z,28.75
2023-05-14T21:00:43.494Z,34.60
2023-05-14T21:03:10.842Z,36.07
2023-05-14T21:05:38.369Z,38.78
2023-05-14T21:08:05.967Z,34.80
2023-05-14T21:10:33.096Z,38.55
2023-05-14T21:13:03.018Z,39.75
2023-05-14T21:15:30.784Z,34.27
2023-05-14T21:17:57.828Z,33.67
2023-05-14T21:20:24.980Z,34.55
2023-05-14T21:22:52.012Z,31.27
2023-05-14T21:25:19.220Z,30.00
2023-05-14T21:27:46.343Z,32.87
2023-05-14T21:30:13.910Z,29.90
2023-05-14T21:32:40.980Z,25.95
2023-05-14T21:35:08.377Z,27.38
2023-05-14T21:37:35.436Z,27.98
2023-05-14T21:40:02.552Z,28.77
2023-05-14T21:42:29.627Z,28.98
2023-05-14T21:44:56.662Z,32.30
2023-05-14T21:47:23.753Z,31.52
2023-05-14T21:49:50.727Z,31.05
2023-05-14T21:52:17.762Z,28.10
2023-05-14T21:54:44.814Z,32.88
2023-05-14T21:57:11.763Z,30.73
2023-05-14T21:59:38.789Z,31.45
2023-05-14T22:02:07.291Z,33.60
2023-05-14T22:04:35.559Z,31.03
2023-05-14T22:07:02.889Z,31.70
2023-05-14T22:09:30.503Z,30.63
2023-05-14T22:11:58.420Z,30.27
2023-05-14T22:14:27.372Z,30.90
2023-05-14T22:16:54.573Z,31.37
2023-05-14T22:19:22.400Z,30.02
2023-05-14T22:21:49.603Z,26.33
2023-05-14T22:24:16.765Z,27.58
2023-05-14T22:26:44.076Z,29.42
2023-05-14T22:29:11.284Z,30.57
2023-05-14T22:31:38.400Z,33.97
2023-05-14T22:34:05.694Z,26.75
2023-05-14T22:36:32.662Z,27.50
2023-05-14T22:38:59.651Z,30.50
2023-05-14T22:41:26.782Z,29.50
2023-05-14T22:43:53.769Z,26.33
2023-05-14T22:46:21.218Z,23.67
2023-05-14T22:48:49.293Z,30.02
2023-05-14T22:51:16.736Z,26.90
2023-05-14T22:53:43.915Z,26.40
2023-05-14T22:56:11.064Z,28.20
2023-05-14T22:58:38.255Z,29.00
2023-05-14T23:01:05.433Z,28.33
2023-05-14T23:03:32.563Z,26.67
2023-05-14T23:05:59.597Z,24.73
2023-05-14T23:08:26.625Z,25.40
2023-05-14T23:10:53.977Z,26.20
2023-05-14T23:13:21.269Z,25.80
2023-05-14T23:15:48.825Z,24.67
2023-05-14T23:18:15.980Z,27.20
2023-05-14T23:20:43.416Z,30.70
2023-05-14T23:23:10.432Z,27.42
2023-05-14T23:25:38.321Z,26.27
2023-05-14T23:28:05.486Z,26.70
2023-05-14T23:30:32.471Z,26.93
2023-05-14T23:32:59.541Z,25.83
2023-05-14T23:35:26.870Z,26.38
2023-05-14T23:37:55.388Z,27.80
2023-05-14T23:40:22.417Z,29.38
2023-05-14T23:42:49.396Z,28.20
2023-05-14T23:45:16.606Z,29.05
2023-05-14T23:47:43.658Z,30.25
2023-05-14T23:50:10.868Z,29.70
2023-05-14T23:52:37.984Z,28.60
2023-05-14T23:55:05.430Z,28.20
2023-05-14T23:57:32.427Z,31.17
2023-05-14T23:59:59.447Z,31.98
